TimeCST,TemperatureF,Dew PointF,Humidity,Sea Level PressureIn,VisibilityMPH,Wind Direction,Wind SpeedMPH,Gust SpeedMPH,PrecipitationIn,Events,Conditions,WindDirDegrees,DateUTC
12:00 AM,74,71,86,29.90,12,Calm,Calm,,,,Scattered Clouds,,2012-12-17 06:00:00
3:00 AM,73,71,91,29.87,12,Calm,Calm,,,,Scattered Clouds,,2012-12-17 09:00:00
3:00 AM,-9999,-9999,N/A,-9999,6.2,Calm,Calm,-,N/A,,Scattered Clouds,0,2012-12-17 09:00:00
5:00 AM,71.6,69.8,94,29.86,6.2,Calm,Calm,-,N/A,,Scattered Clouds,0,2012-12-17 11:00:00
6:00 AM,74,72,90,29.87,12,ESE,3.5,,,,Partly Cloudy,120,2012-12-17 12:00:00
6:00 AM,73.4,71.6,94,29.86,6.2,ESE,3.5,-,N/A,,Scattered Clouds,120,2012-12-17 12:00:00
7:00 AM,75.2,71.6,89,29.86,6.2,Calm,Calm,-,N/A,,Mostly Cloudy,0,2012-12-17 13:00:00
8:00 AM,80.6,75.2,84,29.89,6.2,SE,6.9,-,N/A,,Mostly Cloudy,130,2012-12-17 14:00:00
9:00 AM,82,74,72,29.91,12,ESE,6.9,,,,Mostly Cloudy,120,2012-12-17 15:00:00
9:00 AM,82.4,75.2,79,29.91,6.2,ESE,6.9,-,N/A,,Mostly Cloudy,120,2012-12-17 15:00:00
10:00 AM,82.4,73.4,74,29.91,6.2,SE,8.1,-,N/A,,Mostly Cloudy,130,2012-12-17 16:00:00
11:00 AM,82.4,75.2,79,29.89,6.2,SE,9.2,-,N/A,,Scattered Clouds,130,2012-12-17 17:00:00
12:00 PM,84,76,70,29.87,12,SSE,9.2,,,,Mostly Cloudy,150,2012-12-17 18:00:00
12:00 PM,84.2,75.2,74,29.86,6.2,SSE,9.2,-,N/A,,Mostly Cloudy,150,2012-12-17 18:00:00
1:00 PM,86.0,75.2,70,29.83,6.2,SSE,8.1,-,N/A,,Scattered Clouds,150,2012-12-17 19:00:00
2:00 PM,84.2,75.2,74,29.81,6.2,SSE,6.9,-,N/A,,Scattered Clouds,150,2012-12-17 20:00:00
3:00 PM,83,74,69,29.81,12,SSE,6.9,,,,Partly Cloudy,150,2012-12-17 21:00:00
3:00 PM,84.2,75.2,74,29.80,6.2,SSE,6.9,-,N/A,,Scattered Clouds,150,2012-12-17 21:00:00
4:00 PM,82.4,73.4,74,29.80,6.2,ESE,6.9,-,N/A,,Scattered Clouds,120,2012-12-17 22:00:00
9:00 PM,75,73,91,29.91,12,East,3.5,,,,Scattered Clouds,100,2012-12-18 03:00:00